Time;durP1;ratioP1;P1;durP2;ratioP2;P2;SDS_P1;SDS_P2;PMS_P1;PMS_P2;Temp;Humidity;BMP_temperature;BMP_pressure;BME280_temperature;BME280_humidity;BME280_pressure;Samples;Min_cycle;Max_cycle;Signal;HPM_P1;HPM_P2
2024/04/16 00:00:28;;;;;;;20.20;3.95;;;8.20;99.90;;;7.37;100.00;101585.63;4483332;26;20011;-59
2024/04/16 00:02:29;;;;;;;12.35;3.97;;;8.10;99.90;;;7.36;100.00;101583.94;4458305;26;20353;-59
2024/04/16 00:04:30;;;;;;;20.48;3.75;;;8.10;99.90;;;7.35;100.00;101580.47;4474362;26;20003;-59
2024/04/16 00:06:31;;;;;;;14.85;3.38;;;8.10;99.90;;;7.42;100.00;101579.06;4458054;26;20045;-59
2024/04/16 00:08:32;;;;;;;19.23;3.70;;;8.10;99.90;;;7.41;100.00;101582.63;4461033;26;20004;-59
2024/04/16 00:10:33;;;;;;;13.43;3.75;;;8.10;99.90;;;7.37;100.00;101583.81;4458051;26;20053;-59
2024/04/16 00:12:34;;;;;;;15.38;2.72;;;8.10;99.90;;;7.32;100.00;101588.56;4458071;26;20356;-58
2024/04/16 00:14:34;;;;;;;19.50;4.88;;;8.00;99.90;;;7.29;100.00;101588.78;4457943;26;20014;-58
2024/04/16 00:16:35;;;;;;;17.75;3.97;;;8.00;99.90;;;7.26;100.00;101590.84;4457550;26;20000;-59
2024/04/16 00:18:36;;;;;;;15.65;3.13;;;8.00;99.90;;;7.23;100.00;101586.63;4458032;26;20028;-58
2024/04/16 00:20:37;;;;;;;20.45;3.78;;;8.00;99.90;;;7.17;100.00;101580.03;4457981;26;20000;-59
2024/04/16 00:22:38;;;;;;;17.75;2.95;;;7.90;99.90;;;7.17;100.00;101568.72;4457893;26;20079;-59
2024/04/16 00:24:38;;;;;;;23.42;3.10;;;7.90;99.90;;;7.11;100.00;101575.25;4457888;26;20004;-59
2024/04/16 00:26:39;;;;;;;16.15;3.13;;;7.90;99.90;;;7.06;100.00;101577.38;4457814;26;20008;-59
2024/04/16 00:28:40;;;;;;;13.02;3.25;;;7.80;99.90;;;7.06;100.00;101566.06;4466649;26;20040;-59
2024/04/16 00:30:41;;;;;;;17.00;3.00;;;7.80;99.90;;;7.05;100.00;101564.38;4458789;26;20016;-59
2024/04/16 00:32:42;;;;;;;16.45;3.33;;;7.70;99.90;;;7.02;100.00;101556.72;4457775;26;20015;-59
2024/04/16 00:34:43;;;;;;;14.80;3.28;;;7.70;99.90;;;6.99;100.00;101551.75;4457764;26;20470;-59
2024/04/16 00:36:43;;;;;;;10.35;2.83;;;7.70;99.90;;;6.96;100.00;101554.59;4457773;26;20000;-59
2024/04/16 00:38:44;;;;;;;18.10;3.05;;;7.70;99.90;;;6.95;100.00;101542.41;4457776;26;20039;-58
2024/04/16 00:40:45;;;;;;;16.20;3.67;;;7.70;99.90;;;6.99;100.00;101541.25;4457781;26;20036;-59
2024/04/16 00:42:50;;;;;;;13.07;3.03;;;7.70;99.90;;;6.99;100.00;101544.69;4457669;26;20004;-59
2024/04/16 00:44:51;;;;;;;16.83;2.15;;;7.70;99.90;;;6.94;100.00;101536.31;4457346;26;20011;-59
2024/04/16 00:46:52;;;;;;;17.02;3.78;;;7.60;99.90;;;6.90;100.00;101537.50;4457356;26;20336;-58
2024/04/16 00:48:53;;;;;;;15.27;2.90;;;7.60;99.90;;;6.92;100.00;101534.75;4457708;26;20011;-59
2024/04/16 00:50:57;;;;;;;20.25;3.65;;;7.60;99.90;;;6.91;100.00;101525.22;4457306;26;20000;-58
2024/04/16 00:52:57;;;;;;;15.13;4.05;;;7.60;99.90;;;6.93;100.00;101533.84;4457732;26;20004;-58
2024/04/16 00:54:58;;;;;;;16.75;2.92;;;7.60;99.90;;;6.88;100.00;101525.44;4466807;26;20037;-58
2024/04/16 00:56:59;;;;;;;18.83;3.80;;;7.60;99.90;;;6.87;100.00;101518.53;4457359;26;20011;-58
2024/04/16 00:59:01;;;;;;;17.65;2.97;;;7.60;99.90;;;6.86;100.00;101529.97;4472014;26;20003;-58
2024/04/16 01:01:02;;;;;;;23.60;5.07;;;7.50;99.90;;;6.83;100.00;101522.34;4486277;26;20019;-59
2024/04/16 01:03:03;;;;;;;18.50;4.30;;;7.50;99.90;;;6.79;100.00;101520.88;4486519;26;20008;-58
2024/04/16 01:05:04;;;;;;;19.98;3.80;;;7.50;99.90;;;6.86;100.00;101516.88;4459437;26;20005;-58
2024/04/16 01:07:05;;;;;;;21.48;3.33;;;7.50;99.90;;;6.86;100.00;101514.25;4457242;26;20012;-58
2024/04/16 01:09:09;;;;;;;18.30;3.88;;;7.50;99.90;;;6.82;100.00;101511.00;4478045;26;20503;-58
2024/04/16 01:11:10;;;;;;;14.55;3.60;;;7.50;99.90;;;6.82;100.00;101507.53;4455489;26;20028;-59
2024/04/16 01:13:11;;;;;;;20.77;4.45;;;7.50;99.90;;;6.77;100.00;101513.13;4457114;26;20011;-59
2024/04/16 01:15:11;;;;;;;21.92;4.60;;;7.50;99.90;;;6.77;100.00;101509.66;4456700;26;20340;-58
2024/04/16 01:17:12;;;;;;;16.42;3.60;;;7.40;99.90;;;6.72;100.00;101509.19;4456801;26;20004;-59
2024/04/16 01:19:13;;;;;;;17.30;3.17;;;7.40;99.90;;;6.67;100.00;101514.75;4456968;26;20428;-59
2024/04/16 01:21:14;;;;;;;17.02;3.97;;;7.40;99.90;;;6.67;100.00;101506.88;4456706;26;20085;-58
2024/04/16 01:23:15;;;;;;;24.92;5.45;;;7.40;99.90;;;6.68;100.00;101513.81;4459515;26;20001;-59
2024/04/16 01:25:16;;;;;;;17.50;4.28;;;7.40;99.90;;;6.72;100.00;101503.94;4459849;26;20344;-59
2024/04/16 01:27:17;;;;;;;17.50;2.72;;;7.40;99.90;;;6.71;100.00;101492.59;4459800;26;20015;-58
2024/04/16 01:29:18;;;;;;;18.73;3.78;;;7.40;99.90;;;6.68;100.00;101498.06;4459888;26;20004;-58
2024/04/16 01:31:19;;;;;;;22.45;3.50;;;7.40;99.90;;;6.65;100.00;101495.69;4459460;26;20091;-59
2024/04/16 01:33:20;;;;;;;16.92;4.00;;;7.40;99.90;;;6.66;100.00;101492.94;4460044;26;20078;-59
2024/04/16 01:35:21;;;;;;;15.75;4.15;;;7.40;99.90;;;6.64;100.00;101494.00;4460962;26;20005;-58
2024/04/16 01:37:22;;;;;;;18.13;3.45;;;7.40;99.90;;;6.61;100.00;101495.06;4459669;26;20004;-58
2024/04/16 01:39:23;;;;;;;27.05;4.88;;;7.30;99.90;;;6.61;100.00;101495.06;4474282;26;20007;-59
2024/04/16 01:41:23;;;;;;;17.35;3.88;;;7.40;99.90;;;6.64;100.00;101505.31;4468472;26;20013;-58
2024/04/16 01:43:24;;;;;;;21.40;3.50;;;7.40;99.90;;;6.64;100.00;101502.69;4459303;26;20000;-59
2024/04/16 01:45:25;;;;;;;15.45;3.67;;;7.30;99.90;;;6.60;100.00;101498.63;4459354;26;20000;-59
2024/04/16 01:47:26;;;;;;;17.77;3.42;;;7.30;99.90;;;6.63;100.00;101511.50;4459732;26;20467;-58
2024/04/16 01:49:27;;;;;;;14.38;3.75;;;7.30;99.90;;;6.60;100.00;101503.06;4459620;26;20000;-58
2024/04/16 01:51:27;;;;;;;16.40;4.40;;;7.30;99.90;;;6.65;100.00;101499.16;4459579;26;20024;-58
2024/04/16 01:53:28;;;;;;;21.15;3.33;;;7.30;99.90;;;6.59;100.00;101496.97;4468503;26;20468;-59
2024/04/16 01:55:29;;;;;;;15.38;3.45;;;7.30;99.90;;;6.62;100.00;101486.25;4481691;26;20467;-59
2024/04/16 01:57:30;;;;;;;23.38;4.47;;;7.30;99.90;;;6.63;100.00;101487.91;4488682;26;20346;-59
2024/04/16 01:59:31;;;;;;;20.23;3.45;;;7.30;99.90;;;6.68;100.00;101487.59;4464305;26;20004;-59
2024/04/16 02:01:32;;;;;;;20.58;3.55;;;7.30;99.90;;;6.61;100.00;101481.97;4459085;26;20008;-59
2024/04/16 02:03:33;;;;;;;21.90;3.95;;;7.30;99.90;;;6.58;100.00;101471.69;4463876;26;20447;-59
2024/04/16 02:05:37;;;;;;;19.63;4.05;;;7.30;99.90;;;6.60;100.00;101480.28;4470466;26;20457;-59
2024/04/16 02:07:38;;;;;;;20.88;4.47;;;7.30;99.90;;;6.58;100.00;101476.94;4459291;26;20000;-59
2024/04/16 02:09:39;;;;;;;19.30;4.75;;;7.30;99.90;;;6.60;100.00;101480.28;4459356;26;20076;-59
2024/04/16 02:11:40;;;;;;;17.23;3.60;;;7.30;99.90;;;6.59;100.00;101486.47;4459287;26;20012;-59
2024/04/16 02:13:41;;;;;;;20.00;3.55;;;7.30;99.90;;;6.61;100.00;101488.97;4459305;26;20014;-58
2024/04/16 02:15:42;;;;;;;15.27;3.05;;;7.30;99.90;;;6.57;100.00;101487.56;4458970;26;20067;-59
2024/04/16 02:17:43;;;;;;;22.45;4.38;;;7.30;99.90;;;6.57;100.00;101485.75;4458874;26;20036;-59
2024/04/16 02:19:44;;;;;;;20.33;4.00;;;7.30;99.90;;;6.56;100.00;101486.72;4459155;26;20010;-59
2024/04/16 02:21:45;;;;;;;18.08;4.18;;;7.30;99.90;;;6.57;100.00;101495.41;4459229;26;20004;-59
2024/04/16 02:23:47;;;;;;;22.73;4.65;;;7.30;99.90;;;6.53;100.00;101500.03;4464453;26;20003;-59
2024/04/16 02:25:49;;;;;;;18.73;3.63;;;7.20;99.90;;;6.58;100.00;101495.28;4459261;26;20016;-58
2024/04/16 02:27:50;;;;;;;19.33;3.40;;;7.30;99.90;;;6.64;100.00;101504.47;4458996;26;20102;-59
2024/04/16 02:29:50;;;;;;;17.08;4.25;;;7.30;99.90;;;6.66;100.00;101502.56;4459002;26;20440;-59
2024/04/16 02:31:51;;;;;;;13.85;2.90;;;7.40;99.90;;;6.64;100.00;101497.47;4458767;26;20004;-58
2024/04/16 02:33:52;;;;;;;23.17;4.47;;;7.40;99.90;;;6.59;100.00;101499.59;4458976;26;20028;-59
2024/04/16 02:35:55;;;;;;;18.48;3.15;;;7.30;99.90;;;6.60;100.00;101495.19;4459188;26;20041;-59
2024/04/16 02:37:56;;;;;;;15.85;3.95;;;7.30;99.90;;;6.55;100.00;101490.25;4459074;26;20351;-59
2024/04/16 02:39:57;;;;;;;16.85;4.53;;;7.30;99.90;;;6.53;100.00;101484.31;4458991;26;20004;-59
2024/04/16 02:41:59;;;;;;;19.10;3.03;;;7.30;99.90;;;6.55;100.00;101486.81;4458915;26;20010;-58
2024/04/16 02:44:00;;;;;;;19.40;3.42;;;7.30;99.90;;;6.51;100.00;101486.19;4474663;26;20015;-59
2024/04/16 02:46:00;;;;;;;23.55;5.40;;;7.20;99.90;;;6.51;100.00;101486.19;4458640;26;20032;-59
2024/04/16 02:48:01;;;;;;;25.58;3.75;;;7.20;99.90;;;6.52;100.00;101479.16;4458761;26;20000;-58
2024/04/16 02:50:03;;;;;;;20.88;3.88;;;7.20;99.90;;;6.50;100.00;101483.69;4458968;26;20041;-58
2024/04/16 02:52:04;;;;;;;24.63;4.13;;;7.20;99.90;;;6.48;100.00;101482.97;4458842;26;20008;-59
2024/04/16 02:54:05;;;;;;;14.10;3.47;;;7.20;99.90;;;6.53;100.00;101476.44;4470981;26;20004;-59
2024/04/16 02:56:06;;;;;;;30.08;4.43;;;7.20;99.90;;;6.48;100.00;101481.16;4464928;26;20046;-58
2024/04/16 02:58:07;;;;;;;29.88;4.28;;;7.20;99.90;;;6.52;100.00;101474.75;4462451;26;20020;-59
2024/04/16 03:00:08;;;;;;;20.27;3.58;;;7.20;99.90;;;6.58;100.00;101474.31;4488129;26;20014;-59
2024/04/16 03:02:09;;;;;;;20.23;5.40;;;7.20;99.90;;;6.54;100.00;101465.00;4487661;26;20077;-59
2024/04/16 03:04:10;;;;;;;18.30;4.28;;;7.20;99.90;;;6.52;100.00;101469.53;4472300;26;20023;-59
2024/04/16 03:06:11;;;;;;;18.60;4.65;;;7.20;99.90;;;6.54;100.00;101475.47;4461573;26;20032;-59
2024/04/16 03:08:11;;;;;;;22.90;4.95;;;7.20;99.90;;;6.58;100.00;101476.94;4458555;26;20070;-58
2024/04/16 03:10:16;;;;;;;17.90;3.90;;;7.20;99.90;;;6.54;100.00;101479.91;4458816;26;20000;-58
2024/04/16 03:12:17;;;;;;;22.88;4.18;;;7.20;99.90;;;6.50;100.00;101474.06;4460697;26;20016;-59
2024/04/16 03:14:17;;;;;;;26.67;4.97;;;7.20;99.90;;;6.44;100.00;101484.13;4461293;26;20028;-59
2024/04/16 03:16:18;;;;;;;17.92;3.65;;;7.20;99.90;;;6.44;100.00;101482.34;4458238;26;20012;-59
2024/04/16 03:18:19;;;;;;;23.70;3.78;;;7.20;99.90;;;6.48;100.00;101481.16;4458561;26;20010;-59
2024/04/16 03:20:20;;;;;;;17.10;3.83;;;7.20;99.90;;;6.41;100.00;101482.59;4458663;26;20040;-59
2024/04/16 03:22:21;;;;;;;19.08;3.78;;;7.20;99.90;;;6.39;100.00;101483.66;4458805;26;20011;-59
2024/04/16 03:24:22;;;;;;;21.60;3.47;;;7.10;99.90;;;6.32;100.00;101478.00;4458603;26;20040;-59
2024/04/16 03:26:22;;;;;;;15.52;2.78;;;7.10;99.90;;;6.32;100.00;101475.38;4458657;26;20000;-59
2024/04/16 03:28:23;;;;;;;16.77;3.58;;;7.00;99.90;;;6.28;100.00;101473.91;4458502;26;20000;-58
2024/04/16 03:30:25;;;;;;;23.65;3.42;;;7.00;99.90;;;6.23;100.00;101478.66;4458267;26;20019;-58
2024/04/16 03:32:26;;;;;;;18.85;3.50;;;7.00;99.90;;;6.20;100.00;101476.25;4462274;26;20332;-58
2024/04/16 03:34:27;;;;;;;13.75;3.47;;;6.90;99.90;;;6.20;100.00;101481.50;4474194;26;20378;-58
2024/04/16 03:36:28;;;;;;;19.13;3.85;;;7.00;99.90;;;6.15;100.00;101473.16;4458253;26;20004;-59
2024/04/16 03:38:29;;;;;;;20.67;3.47;;;6.90;99.90;;;6.15;100.00;101477.53;4458489;26;20064;-59
2024/04/16 03:40:30;;;;;;;22.73;4.38;;;6.90;99.90;;;6.13;100.00;101465.38;4458415;26;20381;-59
2024/04/16 03:42:31;;;;;;;20.60;3.75;;;6.90;99.90;;;6.12;100.00;101482.03;4463197;26;20040;-58
2024/04/16 03:44:31;;;;;;;18.92;3.50;;;6.90;99.90;;;6.13;100.00;101488.13;4467430;26;20000;-59
2024/04/16 03:46:32;;;;;;;16.92;3.38;;;6.90;99.90;;;6.16;100.00;101480.03;4458354;26;20008;-58
2024/04/16 03:48:33;;;;;;;25.52;4.13;;;6.80;99.90;;;6.15;100.00;101475.78;4458211;26;20012;-57
2024/04/16 03:50:34;;;;;;;24.77;5.30;;;6.90;99.90;;;6.14;100.00;101474.09;4458472;26;20011;-59
2024/04/16 03:52:35;;;;;;;17.05;3.17;;;6.90;99.90;;;6.08;100.00;101469.28;4463798;26;20006;-58
2024/04/16 03:54:36;;;;;;;22.80;4.38;;;6.80;99.90;;;6.06;100.00;101464.13;4472852;26;20039;-58
2024/04/16 03:56:37;;;;;;;16.75;4.57;;;6.80;99.90;;;6.01;100.00;101470.66;4459580;26;20000;-59
2024/04/16 03:58:54;;;;;;;13.40;3.05;;;6.80;99.90;;;5.96;100.00;101467.53;4462471;26;20000;-58
2024/04/16 04:01:03;;;;;;;15.13;3.78;;;6.70;99.90;;;5.90;100.00;101468.81;4457588;26;20000;-58
2024/04/16 04:03:04;;;;;;;18.00;3.97;;;6.70;99.90;;;5.88;100.00;101470.72;4465443;26;21675;-58
2024/04/16 04:05:06;;;;;;;23.85;2.95;;;6.60;99.90;;;5.84;100.00;101460.50;4474278;26;20451;-58
2024/04/16 04:07:06;;;;;;;17.88;4.65;;;6.60;99.90;;;5.82;100.00;101451.94;4458120;26;20004;-59
2024/04/16 04:09:07;;;;;;;19.02;5.05;;;6.60;99.90;;;5.78;100.00;101458.31;4458150;26;20019;-58
2024/04/16 04:11:08;;;;;;;23.45;4.07;;;6.50;99.90;;;5.77;100.00;101462.72;4458039;26;20352;-58
2024/04/16 04:13:09;;;;;;;16.08;3.95;;;6.50;99.90;;;5.73;100.00;101457.81;4460265;26;20361;-59
2024/04/16 04:15:10;;;;;;;20.85;3.92;;;6.50;99.90;;;5.79;100.00;101460.00;4460510;26;20004;-59
2024/04/16 04:17:11;;;;;;;17.42;3.47;;;6.50;99.90;;;5.79;100.00;101462.63;4480087;26;20023;-58
2024/04/16 04:19:12;;;;;;;18.48;4.18;;;6.50;99.90;;;5.80;100.00;101461.66;4483667;26;20097;-59
2024/04/16 04:21:12;;;;;;;17.48;3.00;;;6.50;99.90;;;5.75;100.00;101461.16;4468873;26;20000;-59
2024/04/16 04:23:14;;;;;;;20.20;3.22;;;6.50;99.90;;;5.76;100.00;101466.31;4473046;26;20000;-58
2024/04/16 04:25:15;;;;;;;19.75;3.60;;;6.40;99.90;;;5.75;100.00;101472.47;4457786;26;20000;-59
2024/04/16 04:27:16;;;;;;;18.30;4.00;;;6.50;99.90;;;5.75;100.00;101480.31;4457857;26;20402;-59
2024/04/16 04:29:17;;;;;;;26.83;3.80;;;6.50;99.90;;;5.73;100.00;101486.63;4457703;26;20008;-58
2024/04/16 04:31:19;;;;;;;22.45;5.30;;;6.50;99.90;;;5.76;100.00;101486.41;4457471;26;20011;-58
2024/04/16 04:33:20;;;;;;;19.88;4.07;;;6.50;99.90;;;5.78;100.00;101477.50;4472847;26;19999;-58
2024/04/16 04:35:21;;;;;;;18.15;4.45;;;6.50;99.90;;;5.88;100.00;101488.19;4459266;26;20008;-59
2024/04/16 04:37:22;;;;;;;17.40;3.58;;;6.60;99.90;;;5.90;100.00;101478.44;4457631;26;20045;-58
2024/04/16 04:39:22;;;;;;;22.92;4.15;;;6.60;99.90;;;5.96;100.00;101480.63;4457871;26;20362;-59
2024/04/16 04:41:23;;;;;;;24.55;3.95;;;6.60;99.90;;;5.98;100.00;101476.94;4457528;26;20398;-58
2024/04/16 04:43:24;;;;;;;17.13;4.45;;;6.70;99.90;;;5.98;100.00;101476.09;4470536;26;20004;-58
2024/04/16 04:45:26;;;;;;;16.70;4.30;;;6.70;99.90;;;5.96;100.00;101481.47;4457469;26;20020;-59
2024/04/16 04:47:26;;;;;;;15.88;3.00;;;6.70;99.90;;;5.91;100.00;101475.69;4457665;26;19997;-59
2024/04/16 04:49:27;;;;;;;17.92;3.85;;;6.70;99.90;;;5.92;100.00;101476.53;4457644;26;20390;-59
2024/04/16 04:51:28;;;;;;;21.25;4.47;;;6.60;99.90;;;5.89;100.00;101477.59;4457539;26;20000;-59
2024/04/16 04:53:29;;;;;;;17.60;3.28;;;6.60;99.90;;;5.86;100.00;101476.97;4465998;26;20004;-59
2024/04/16 04:55:30;;;;;;;19.83;3.83;;;6.60;99.90;;;5.79;100.00;101484.41;4465989;26;20070;-59
2024/04/16 04:57:31;;;;;;;27.20;4.18;;;6.60;99.90;;;5.79;100.00;101481.78;4460175;26;20015;-58
2024/04/16 04:59:32;;;;;;;20.83;4.03;;;6.60;99.90;;;5.81;100.00;101494.75;4484491;26;20093;-59
2024/04/16 05:01:33;;;;;;;14.73;3.42;;;6.50;99.90;;;5.79;100.00;101501.91;4489722;26;20076;-59
2024/04/16 05:03:34;;;;;;;22.27;4.55;;;6.50;99.90;;;5.80;100.00;101503.53;4476293;26;20015;-59
2024/04/16 05:05:34;;;;;;;18.83;3.35;;;6.50;99.90;;;5.85;100.00;101504.09;4471151;26;20036;-58
2024/04/16 05:07:35;;;;;;;16.60;3.75;;;6.50;99.90;;;5.81;100.00;101495.59;4459958;26;20000;-58
2024/04/16 05:09:36;;;;;;;22.70;4.55;;;6.50;99.90;;;5.80;100.00;101493.06;4460108;26;20004;-59
2024/04/16 05:11:37;;;;;;;19.75;4.45;;;6.50;99.90;;;5.83;100.00;101491.09;4460169;26;20015;-58
2024/04/16 05:13:38;;;;;;;17.75;4.32;;;6.60;99.90;;;5.87;100.00;101494.38;4460817;26;20098;-59
2024/04/16 05:15:38;;;;;;;15.25;3.28;;;6.60;99.90;;;5.94;100.00;101500.84;4459833;26;20016;-59
2024/04/16 05:17:39;;;;;;;18.20;4.32;;;6.60;99.90;;;5.97;100.00;101500.66;4459828;26;20031;-59
2024/04/16 05:19:40;;;;;;;19.95;4.10;;;6.70;99.90;;;6.04;100.00;101512.34;4459979;26;20099;-59
2024/04/16 05:21:41;;;;;;;10.23;3.45;;;6.70;99.90;;;6.08;100.00;101509.41;4460214;26;20012;-59
2024/04/16 05:23:44;;;;;;;18.95;4.13;;;6.80;99.90;;;6.13;100.00;101509.91;4479148;26;20020;-59
2024/04/16 05:25:55;;;;;;;15.23;3.15;;;6.80;99.90;;;6.16;100.00;101501.00;4460203;26;20089;-59
2024/04/16 05:27:56;;;;;;;18.67;4.47;;;6.90;99.90;;;6.19;100.00;101497.31;4459994;26;20028;-58
2024/04/16 05:29:56;;;;;;;15.77;2.95;;;6.90;99.90;;;6.22;100.00;101504.97;4459759;26;20059;-59
2024/04/16 05:31:58;;;;;;;19.15;4.80;;;6.90;99.90;;;6.30;100.00;101513.13;4459986;26;20000;-59
2024/04/16 05:33:58;;;;;;;18.80;4.45;;;7.00;99.90;;;6.35;100.00;101511.84;4475953;26;20000;-59
2024/04/16 05:35:59;;;;;;;13.48;3.28;;;7.00;99.90;;;6.39;100.00;101515.09;4459903;26;20035;-59
2024/04/16 05:38:00;;;;;;;17.05;3.90;;;7.10;99.90;;;6.47;100.00;101513.59;4459947;26;20000;-59
2024/04/16 05:40:01;;;;;;;20.95;4.60;;;7.10;99.90;;;6.52;100.00;101518.47;4459939;26;20028;-58
2024/04/16 05:42:03;;;;;;;13.38;3.58;;;7.20;99.90;;;6.61;100.00;101521.28;4459873;26;20005;-58
2024/04/16 05:44:04;;;;;;;24.63;5.07;;;7.30;99.90;;;6.65;100.00;101520.13;4472054;26;20011;-59
2024/04/16 05:46:05;;;;;;;17.20;3.33;;;7.30;99.90;;;6.70;100.00;101522.38;4459541;26;20332;-58
2024/04/16 05:48:06;;;;;;;15.25;3.35;;;7.30;99.90;;;6.75;100.00;101519.44;4459830;26;20044;-59
2024/04/16 05:50:07;;;;;;;18.48;3.65;;;7.40;99.90;;;6.77;100.00;101520.16;4459788;26;20005;-59
2024/04/16 05:52:07;;;;;;;20.70;4.50;;;7.40;99.90;;;6.81;100.00;101524.25;4459558;26;20000;-59
2024/04/16 05:54:08;;;;;;;16.83;3.58;;;7.50;99.90;;;6.86;100.00;101516.88;4469017;26;20328;-59
2024/04/16 05:56:09;;;;;;;13.77;3.15;;;7.50;99.90;;;6.87;100.00;101515.91;4466392;26;20001;-59
2024/04/16 05:58:10;;;;;;;21.83;4.45;;;7.50;99.90;;;6.91;100.00;101527.84;4482931;26;20054;-59
2024/04/16 06:00:12;;;;;;;22.05;4.75;;;7.50;99.90;;;6.97;100.00;101522.13;4470714;26;20010;-59
2024/04/16 06:02:12;;;;;;;17.83;3.88;;;7.60;99.90;;;7.02;100.00;101527.88;4488880;26;20439;-59
2024/04/16 06:04:13;;;;;;;18.95;4.35;;;7.60;99.90;;;7.08;100.00;101516.91;4481312;26;20039;-59
2024/04/16 06:06:14;;;;;;;16.75;3.63;;;7.60;99.90;;;7.10;100.00;101510.63;4460513;26;20033;-59
2024/04/16 06:08:15;;;;;;;13.57;3.83;;;7.70;99.90;;;7.14;100.00;101519.09;4459205;26;20031;-59
2024/04/16 06:10:16;;;;;;;20.65;4.07;;;7.80;99.90;;;7.20;100.00;101516.00;4466785;26;19996;-58
2024/04/16 06:12:17;;;;;;;16.42;3.58;;;7.80;99.90;;;7.24;100.00;101520.09;4479714;26;20327;-59
2024/04/16 06:14:17;;;;;;;18.30;4.28;;;7.80;99.90;;;7.28;100.00;101516.28;4462095;26;20035;-58
2024/04/16 06:16:18;;;;;;;13.52;3.10;;;7.90;99.90;;;7.37;100.00;101525.25;4459101;26;20040;-59
2024/04/16 06:18:19;;;;;;;13.57;3.72;;;7.90;99.90;;;7.44;100.00;101522.03;4459269;26;20007;-59
2024/04/16 06:20:20;;;;;;;19.48;2.78;;;8.00;99.90;;;7.51;100.00;101527.66;4459037;26;20000;-58
2024/04/16 06:22:21;;;;;;;16.83;3.38;;;8.00;99.90;;;7.58;100.00;101531.50;4465304;26;20018;-59
2024/04/16 06:24:22;;;;;;;16.02;3.30;;;8.10;99.90;;;7.64;100.00;101521.34;4461217;26;20077;-59
2024/04/16 06:26:23;;;;;;;15.68;3.67;;;8.20;99.90;;;7.71;100.00;101530.41;4473085;26;20010;-59
2024/04/16 06:28:24;;;;;;;13.20;2.50;;;8.30;99.90;;;7.75;100.00;101531.03;4459309;26;20000;-59
2024/04/16 06:30:25;;;;;;;16.58;3.72;;;8.40;99.90;;;7.81;100.00;101538.44;4458955;26;20012;-59
2024/04/16 06:32:26;;;;;;;13.25;3.88;;;8.40;99.90;;;7.89;100.00;101537.81;4459062;26;20000;-59
2024/04/16 06:34:27;;;;;;;14.50;2.85;;;8.50;99.90;;;7.98;100.00;101537.09;4459165;26;20443;-59
2024/04/16 06:36:28;;;;;;;19.85;3.63;;;8.60;99.90;;;8.01;100.00;101540.31;4459240;26;20069;-59
2024/04/16 06:38:28;;;;;;;14.30;3.70;;;8.60;99.90;;;7.97;100.00;101536.28;4459260;26;20042;-59
2024/04/16 06:40:30;;;;;;;14.98;3.85;;;8.60;99.90;;;7.98;100.00;101537.94;4462558;26;20027;-59
2024/04/16 06:42:30;;;;;;;19.42;3.33;;;8.70;99.90;;;8.06;100.00;101535.56;4460181;26;19996;-58
2024/04/16 06:44:31;;;;;;;15.95;3.97;;;8.70;99.90;;;8.11;100.00;101541.28;4473252;26;20323;-59
2024/04/16 06:46:32;;;;;;;22.70;3.17;;;8.70;99.90;;;8.16;100.00;101539.13;4464850;26;20000;-59
2024/04/16 06:48:33;;;;;;;14.73;3.55;;;8.80;99.90;;;8.37;100.00;101536.63;4459096;26;20036;-59
2024/04/16 06:50:35;;;;;;;18.13;3.30;;;8.90;99.90;;;8.47;100.00;101532.31;4459065;26;20050;-59
2024/04/16 06:52:35;;;;;;;22.67;3.58;;;9.00;99.90;;;8.55;100.00;101532.50;4473107;26;20393;-59
2024/04/16 06:54:36;;;;;;;15.68;3.17;;;9.10;99.90;;;8.74;100.00;101532.72;4473354;26;20011;-58
2024/04/16 06:56:37;;;;;;;19.77;3.28;;;9.20;99.90;;;8.83;100.00;101539.84;4459241;26;20428;-59
2024/04/16 06:58:38;;;;;;;16.75;3.85;;;9.40;99.90;;;9.01;100.00;101549.81;4470187;26;20034;-59
2024/04/16 07:00:39;;;;;;;17.10;3.67;;;9.50;99.90;;;9.00;100.00;101550.78;4488149;26;19999;-58
2024/04/16 07:02:40;;;;;;;13.20;3.42;;;9.50;99.90;;;9.03;100.00;101547.88;4473145;26;19996;-59
2024/04/16 07:04:41;;;;;;;15.20;4.18;;;9.70;99.90;;;9.09;100.00;101547.38;4475000;26;20047;-59
2024/04/16 07:06:42;;;;;;;14.48;4.38;;;9.70;99.90;;;9.08;100.00;101553.63;4458884;26;20015;-59
2024/04/16 07:08:43;;;;;;;16.67;3.53;;;9.70;99.90;;;9.17;100.00;101558.13;4458887;26;20027;-59
2024/04/16 07:10:46;;;;;;;15.63;4.45;;;9.80;99.90;;;9.23;100.00;101552.34;4458863;26;20505;-59
2024/04/16 07:12:47;;;;;;;19.05;5.32;;;9.80;99.90;;;9.39;100.00;101550.94;4470218;26;19996;-59
2024/04/16 07:14:48;;;;;;;17.05;3.30;;;9.90;99.90;;;9.56;100.00;101552.16;4458416;26;20000;-59
2024/04/16 07:16:48;;;;;;;11.90;2.33;;;10.10;99.90;;;9.71;100.00;101550.00;4458571;26;20000;-58
2024/04/16 07:18:49;;;;;;;15.25;3.85;;;10.20;99.90;;;9.84;100.00;101553.28;4457165;26;20034;-59
2024/04/16 07:20:51;;;;;;;18.25;3.80;;;10.30;99.90;;;9.86;100.00;101554.81;4458826;26;20011;-58
2024/04/16 07:22:52;;;;;;;16.08;3.22;;;10.40;99.90;;;10.00;100.00;101554.44;4465297;26;20028;-59
2024/04/16 07:24:56;;;;;;;20.08;4.50;;;10.50;99.90;;;10.13;100.00;101551.63;4458637;26;20530;-59
2024/04/16 07:26:57;;;;;;;;;;;10.60;99.90;;;10.13;100.00;101551.63;4459412;26;20012;-59
2024/04/16 07:28:58;;;;;;;14.93;3.60;;;10.70;99.90;;;10.32;100.00;101549.06;4458811;26;19937;-59
2024/04/16 07:30:58;;;;;;;14.00;2.83;;;10.80;99.90;;;10.22;100.00;101549.97;4458396;26;20045;-59
2024/04/16 07:32:59;;;;;;;27.50;3.90;;;10.90;99.90;;;10.14;100.00;101555.09;4460729;26;19996;-59
2024/04/16 07:35:00;;;;;;;20.92;5.32;;;10.80;99.90;;;10.31;100.00;101557.94;4458597;26;20037;-58
2024/04/16 07:37:01;;;;;;;21.90;3.78;;;10.90;99.90;;;10.26;100.00;101554.03;4458324;26;20062;-59
2024/04/16 07:39:02;;;;;;;22.10;3.30;;;10.90;99.90;;;10.17;100.00;101546.91;4458311;26;20007;-59
2024/04/16 07:41:03;;;;;;;17.88;3.25;;;10.90;99.90;;;10.03;100.00;101548.91;4458351;26;19997;-59
2024/04/16 07:43:04;;;;;;;15.80;3.50;;;10.80;99.90;;;9.93;100.00;101552.47;4477644;26;20003;-59
2024/04/16 07:45:05;;;;;;;17.33;2.95;;;10.60;99.90;;;9.76;100.00;101555.75;4460332;26;20057;-59
2024/04/16 07:47:06;;;;;;;18.27;4.55;;;10.50;99.90;;;9.89;100.00;101556.34;4458752;26;20028;-59
2024/04/16 07:49:07;;;;;;;12.50;3.17;;;10.50;99.90;;;10.20;100.00;101544.03;4458272;26;19996;-59
2024/04/16 07:51:08;;;;;;;20.55;3.83;;;10.70;99.90;;;10.38;100.00;101548.53;4458265;26;19996;-59
2024/04/16 07:53:09;;;;;;;15.25;4.00;;;10.90;99.90;;;10.41;100.00;101548.25;4475215;26;20019;-59
2024/04/16 07:55:10;;;;;;;15.70;4.07;;;11.00;99.90;;;10.29;100.00;101548.50;4467410;26;20032;-59
2024/04/16 07:57:11;;;;;;;19.98;3.35;;;11.00;99.90;;;10.28;100.00;101542.38;4473415;26;20320;-59
2024/04/16 07:59:12;;;;;;;24.90;4.05;;;11.00;99.90;;;10.31;100.00;101542.09;4472509;26;20027;-59
2024/04/16 08:01:14;;;;;;;15.02;3.08;;;11.00;99.90;;;10.30;100.00;101550.16;4472349;26;20340;-59
2024/04/16 08:03:15;;;;;;;13.35;3.83;;;11.00;99.90;;;10.65;100.00;101547.03;4468683;26;20000;-59
2024/04/16 08:05:16;;;;;;;15.23;2.72;;;11.10;99.90;;;10.95;100.00;101542.50;4475944;26;20455;-59
2024/04/16 08:07:17;;;;;;;17.63;3.83;;;11.30;99.90;;;10.63;100.00;101541.91;4473119;26;19997;-59
2024/04/16 08:09:18;;;;;;;18.02;3.40;;;11.40;99.90;;;10.69;100.00;101549.28;4468018;26;20032;-59
2024/04/16 08:11:19;;;;;;;13.23;3.22;;;11.40;99.90;;;10.71;100.00;101543.84;4468847;26;20000;-58
2024/04/16 08:13:19;;;;;;;16.80;3.20;;;11.40;99.90;;;10.62;100.00;101532.31;4471969;26;19996;-59
2024/04/16 08:15:20;;;;;;;13.07;2.83;;;11.30;99.90;;;10.69;100.00;101535.25;4470688;26;20000;-59
2024/04/16 08:17:21;;;;;;;21.38;3.70;;;11.30;99.90;;;10.46;100.00;101539.91;4468744;26;20024;-59
2024/04/16 08:19:22;;;;;;;17.35;3.67;;;11.30;99.90;;;10.54;100.00;101540.91;4468168;26;20001;-59
2024/04/16 08:21:23;;;;;;;16.42;3.53;;;11.20;99.90;;;10.63;100.00;101541.91;4471438;26;20018;-59